sensor_id;sensor_type;location;lat;lon;timestamp;temperature;humidity
36186;DHT22;22228;53.222;7.446;2023-08-08T00:01:07;12.50;99.90
36186;DHT22;22228;53.222;7.446;2023-08-08T00:03:28;12.50;99.90
36186;DHT22;22228;53.222;7.446;2023-08-08T00:05:48;12.60;99.90
36186;DHT22;22228;53.222;7.446;2023-08-08T00:08:09;12.50;99.90
36186;DHT22;22228;53.222;7.446;2023-08-08T00:10:31;12.50;99.90
36186;DHT22;22228;53.222;7.446;2023-08-08T00:12:51;12.50;99.90
36186;DHT22;22228;53.222;7.446;2023-08-08T03:00:32;13.20;99.90
36186;DHT22;22228;53.222;7.446;2023-08-08T03:02:54;13.20;99.90
36186;DHT22;22228;53.222;7.446;2023-08-08T03:05:15;13.20;99.90
36186;DHT22;22228;53.222;7.446;2023-08-08T03:07:36;13.20;99.90
36186;DHT22;22228;53.222;7.446;2023-08-08T03:09:56;13.20;99.90
36186;DHT22;22228;53.222;7.446;2023-08-08T03:12:17;13.20;99.90
36186;DHT22;22228;53.222;7.446;2023-08-08T03:17:09;13.30;99.90
36186;DHT22;22228;53.222;7.446;2023-08-08T03:19:29;13.30;99.90
36186;DHT22;22228;53.222;7.446;2023-08-08T03:21:52;13.30;99.90
36186;DHT22;22228;53.222;7.446;2023-08-08T03:24:13;13.30;99.90
36186;DHT22;22228;53.222;7.446;2023-08-08T03:26:34;13.30;99.90
36186;DHT22;22228;53.222;7.446;2023-08-08T03:28:55;13.30;99.90
36186;DHT22;22228;53.222;7.446;2023-08-08T03:31:22;13.20;99.90
36186;DHT22;22228;53.222;7.446;2023-08-08T03:33:46;13.20;99.90
36186;DHT22;22228;53.222;7.446;2023-08-08T03:36:07;13.20;99.90
36186;DHT22;22228;53.222;7.446;2023-08-08T03:38:31;13.20;99.90
36186;DHT22;22228;53.222;7.446;2023-08-08T03:40:51;13.20;99.90
36186;DHT22;22228;53.222;7.446;2023-08-08T03:43:12;13.20;99.90
36186;DHT22;22228;53.222;7.446;2023-08-08T03:45:33;13.20;99.90
36186;DHT22;22228;53.222;7.446;2023-08-08T03:47:54;13.20;99.90
36186;DHT22;22228;53.222;7.446;2023-08-08T03:50:16;13.20;99.90
36186;DHT22;22228;53.222;7.446;2023-08-08T03:52:36;13.20;99.90
36186;DHT22;22228;53.222;7.446;2023-08-08T03:55:00;13.20;99.90
36186;DHT22;22228;53.222;7.446;2023-08-08T03:57:20;13.20;99.90
36186;DHT22;22228;53.222;7.446;2023-08-08T03:59:41;13.20;99.90
36186;DHT22;22228;53.222;7.446;2023-08-08T04:02:02;13.20;99.90
36186;DHT22;22228;53.222;7.446;2023-08-08T04:04:23;13.20;99.90
36186;DHT22;22228;53.222;7.446;2023-08-08T04:06:45;13.20;99.90
36186;DHT22;22228;53.222;7.446;2023-08-08T04:09:06;13.20;99.90
36186;DHT22;22228;53.222;7.446;2023-08-08T04:11:27;13.10;99.90
36186;DHT22;22228;53.222;7.446;2023-08-08T04:13:47;13.10;99.90
36186;DHT22;22228;53.222;7.446;2023-08-08T04:16:08;13.10;99.90
36186;DHT22;22228;53.222;7.446;2023-08-08T04:18:28;13.10;99.90
36186;DHT22;22228;53.222;7.446;2023-08-08T04:20:49;13.10;99.90
36186;DHT22;22228;53.222;7.446;2023-08-08T04:23:11;13.00;99.90
36186;DHT22;22228;53.222;7.446;2023-08-08T04:25:32;13.00;99.90
36186;DHT22;22228;53.222;7.446;2023-08-08T04:27:53;13.00;99.90
36186;DHT22;22228;53.222;7.446;2023-08-08T04:30:13;13.00;99.90
36186;DHT22;22228;53.222;7.446;2023-08-08T04:32:34;13.00;99.90
36186;DHT22;22228;53.222;7.446;2023-08-08T04:34:55;12.90;99.90
36186;DHT22;22228;53.222;7.446;2023-08-08T04:37:15;13.00;99.90
36186;DHT22;22228;53.222;7.446;2023-08-08T04:39:37;13.00;99.90
36186;DHT22;22228;53.222;7.446;2023-08-08T04:41:58;12.90;99.90
36186;DHT22;22228;53.222;7.446;2023-08-08T04:44:22;12.90;99.90
36186;DHT22;22228;53.222;7.446;2023-08-08T04:46:42;12.90;99.90
36186;DHT22;22228;53.222;7.446;2023-08-08T04:49:03;12.90;99.90
36186;DHT22;22228;53.222;7.446;2023-08-08T04:51:23;12.90;99.90
36186;DHT22;22228;53.222;7.446;2023-08-08T04:53:44;12.90;99.90
36186;DHT22;22228;53.222;7.446;2023-08-08T04:56:06;12.90;99.90
36186;DHT22;22228;53.222;7.446;2023-08-08T04:58:27;12.90;99.90
36186;DHT22;22228;53.222;7.446;2023-08-08T05:00:47;12.90;99.90
36186;DHT22;22228;53.222;7.446;2023-08-08T05:03:11;12.90;99.90
36186;DHT22;22228;53.222;7.446;2023-08-08T05:05:31;12.90;99.90
36186;DHT22;22228;53.222;7.446;2023-08-08T05:07:52;12.90;99.90
36186;DHT22;22228;53.222;7.446;2023-08-08T05:10:13;12.90;99.90
36186;DHT22;22228;53.222;7.446;2023-08-08T05:12:34;12.90;99.90
36186;DHT22;22228;53.222;7.446;2023-08-08T05:14:55;12.90;99.90
36186;DHT22;22228;53.222;7.446;2023-08-08T05:17:16;13.00;99.90
36186;DHT22;22228;53.222;7.446;2023-08-08T05:19:36;13.00;99.90
36186;DHT22;22228;53.222;7.446;2023-08-08T05:21:57;13.10;99.90
36186;DHT22;22228;53.222;7.446;2023-08-08T05:24:19;13.10;99.90
36186;DHT22;22228;53.222;7.446;2023-08-08T05:26:39;13.10;99.90
36186;DHT22;22228;53.222;7.446;2023-08-08T05:29:01;13.20;99.90
36186;DHT22;22228;53.222;7.446;2023-08-08T05:31:22;13.20;99.90
36186;DHT22;22228;53.222;7.446;2023-08-08T05:33:42;13.20;99.90
36186;DHT22;22228;53.222;7.446;2023-08-08T05:36:03;13.20;99.90
36186;DHT22;22228;53.222;7.446;2023-08-08T05:38:24;13.30;99.90
36186;DHT22;22228;53.222;7.446;2023-08-08T05:40:44;13.30;99.90
36186;DHT22;22228;53.222;7.446;2023-08-08T05:43:05;13.40;99.90
36186;DHT22;22228;53.222;7.446;2023-08-08T05:45:27;13.50;99.90
36186;DHT22;22228;53.222;7.446;2023-08-08T05:47:48;13.50;99.90
36186;DHT22;22228;53.222;7.446;2023-08-08T05:50:09;13.70;99.90
36186;DHT22;22228;53.222;7.446;2023-08-08T05:52:30;13.80;99.90
36186;DHT22;22228;53.222;7.446;2023-08-08T05:54:51;13.80;99.90
36186;DHT22;22228;53.222;7.446;2023-08-08T05:57:12;13.90;99.90
36186;DHT22;22228;53.222;7.446;2023-08-08T05:59:32;14.00;99.90
36186;DHT22;22228;53.222;7.446;2023-08-08T06:01:54;14.10;99.90
36186;DHT22;22228;53.222;7.446;2023-08-08T06:04:15;14.20;99.90
36186;DHT22;22228;53.222;7.446;2023-08-08T06:06:36;14.30;99.90
36186;DHT22;22228;53.222;7.446;2023-08-08T06:08:57;14.40;99.90
36186;DHT22;22228;53.222;7.446;2023-08-08T06:11:18;14.50;99.90
36186;DHT22;22228;53.222;7.446;2023-08-08T06:13:39;14.60;99.90
36186;DHT22;22228;53.222;7.446;2023-08-08T06:16:00;14.80;99.90
36186;DHT22;22228;53.222;7.446;2023-08-08T06:18:26;14.90;99.90
36186;DHT22;22228;53.222;7.446;2023-08-08T06:20:47;14.90;99.90
36186;DHT22;22228;53.222;7.446;2023-08-08T06:23:07;15.10;99.90
36186;DHT22;22228;53.222;7.446;2023-08-08T06:25:29;15.20;99.90
36186;DHT22;22228;53.222;7.446;2023-08-08T06:27:53;15.30;99.90
36186;DHT22;22228;53.222;7.446;2023-08-08T06:30:14;15.40;99.90
36186;DHT22;22228;53.222;7.446;2023-08-08T06:32:37;15.50;99.90
36186;DHT22;22228;53.222;7.446;2023-08-08T06:34:59;15.60;99.90
36186;DHT22;22228;53.222;7.446;2023-08-08T06:37:20;15.70;99.90
36186;DHT22;22228;53.222;7.446;2023-08-08T06:39:40;15.80;99.90
36186;DHT22;22228;53.222;7.446;2023-08-08T06:42:04;15.80;99.90
36186;DHT22;22228;53.222;7.446;2023-08-08T06:44:41;15.80;99.90
36186;DHT22;22228;53.222;7.446;2023-08-08T06:47:02;15.80;99.90
36186;DHT22;22228;53.222;7.446;2023-08-08T06:49:29;15.90;99.90
36186;DHT22;22228;53.222;7.446;2023-08-08T06:51:51;15.90;99.90
36186;DHT22;22228;53.222;7.446;2023-08-08T06:54:12;16.00;99.90
36186;DHT22;22228;53.222;7.446;2023-08-08T06:56:32;16.00;99.90
36186;DHT22;22228;53.222;7.446;2023-08-08T06:58:53;15.90;99.90
36186;DHT22;22228;53.222;7.446;2023-08-08T07:01:14;15.90;99.90
36186;DHT22;22228;53.222;7.446;2023-08-08T07:03:34;15.70;99.90
36186;DHT22;22228;53.222;7.446;2023-08-08T07:05:56;15.70;99.90
36186;DHT22;22228;53.222;7.446;2023-08-08T07:08:21;15.60;99.90
36186;DHT22;22228;53.222;7.446;2023-08-08T07:10:43;15.50;99.90
36186;DHT22;22228;53.222;7.446;2023-08-08T07:13:06;15.40;99.90
36186;DHT22;22228;53.222;7.446;2023-08-08T07:15:27;15.40;99.90
36186;DHT22;22228;53.222;7.446;2023-08-08T07:17:48;15.60;99.90
36186;DHT22;22228;53.222;7.446;2023-08-08T07:20:09;15.80;99.90
36186;DHT22;22228;53.222;7.446;2023-08-08T07:22:33;15.80;99.90
36186;DHT22;22228;53.222;7.446;2023-08-08T07:24:55;15.90;99.90
36186;DHT22;22228;53.222;7.446;2023-08-08T07:27:16;16.10;99.90
36186;DHT22;22228;53.222;7.446;2023-08-08T07:29:36;16.20;99.90
36186;DHT22;22228;53.222;7.446;2023-08-08T07:32:02;16.40;99.90
36186;DHT22;22228;53.222;7.446;2023-08-08T07:34:32;16.40;64.30
36186;DHT22;22228;53.222;7.446;2023-08-08T07:36:53;16.60;84.60
36186;DHT22;22228;53.222;7.446;2023-08-08T07:39:13;16.70;42.90
36186;DHT22;22228;53.222;7.446;2023-08-08T07:41:42;16.80;28.60
36186;DHT22;22228;53.222;7.446;2023-08-08T07:44:02;16.80;18.20
36186;DHT22;22228;53.222;7.446;2023-08-08T07:46:23;16.80;22.50
36186;DHT22;22228;53.222;7.446;2023-08-08T07:48:53;16.80;1.00
36186;DHT22;22228;53.222;7.446;2023-08-08T07:51:15;16.80;1.00
36186;DHT22;22228;53.222;7.446;2023-08-08T07:53:37;16.80;1.00
36186;DHT22;22228;53.222;7.446;2023-08-08T07:55:57;16.90;1.00
36186;DHT22;22228;53.222;7.446;2023-08-08T07:58:19;16.90;1.00
36186;DHT22;22228;53.222;7.446;2023-08-08T08:00:42;16.70;1.00
36186;DHT22;22228;53.222;7.446;2023-08-08T08:03:04;16.80;1.00
36186;DHT22;22228;53.222;7.446;2023-08-08T08:05:25;16.90;1.00
36186;DHT22;22228;53.222;7.446;2023-08-08T08:07:46;17.10;1.00
36186;DHT22;22228;53.222;7.446;2023-08-08T08:10:08;17.20;1.00
36186;DHT22;22228;53.222;7.446;2023-08-08T08:12:29;17.30;1.00
36186;DHT22;22228;53.222;7.446;2023-08-08T08:14:51;17.40;99.90
36186;DHT22;22228;53.222;7.446;2023-08-08T08:17:12;17.50;99.90
36186;DHT22;22228;53.222;7.446;2023-08-08T08:19:32;17.30;1.00
36186;DHT22;22228;53.222;7.446;2023-08-08T08:21:52;17.30;1.00
36186;DHT22;22228;53.222;7.446;2023-08-08T08:24:13;17.50;1.00
36186;DHT22;22228;53.222;7.446;2023-08-08T08:26:34;17.50;99.90
36186;DHT22;22228;53.222;7.446;2023-08-08T08:28:54;17.40;1.00
36186;DHT22;22228;53.222;7.446;2023-08-08T08:31:16;17.50;1.00
36186;DHT22;22228;53.222;7.446;2023-08-08T08:33:40;17.50;1.00
36186;DHT22;22228;53.222;7.446;2023-08-08T08:36:01;17.60;1.00
36186;DHT22;22228;53.222;7.446;2023-08-08T08:38:22;17.60;1.00
36186;DHT22;22228;53.222;7.446;2023-08-08T08:40:43;17.50;1.00
36186;DHT22;22228;53.222;7.446;2023-08-08T08:43:07;17.50;99.90
36186;DHT22;22228;53.222;7.446;2023-08-08T08:45:30;17.40;29.10
36186;DHT22;22228;53.222;7.446;2023-08-08T08:47:55;17.30;99.90
36186;DHT22;22228;53.222;7.446;2023-08-08T08:50:18;17.10;99.90
36186;DHT22;22228;53.222;7.446;2023-08-08T08:52:43;17.20;99.90
36186;DHT22;22228;53.222;7.446;2023-08-08T08:55:05;17.60;99.90
36186;DHT22;22228;53.222;7.446;2023-08-08T08:57:26;17.90;1.00
36186;DHT22;22228;53.222;7.446;2023-08-08T08:59:58;18.00;99.90
36186;DHT22;22228;53.222;7.446;2023-08-08T09:02:21;17.70;99.90
36186;DHT22;22228;53.222;7.446;2023-08-08T09:04:44;17.40;99.90
36186;DHT22;22228;53.222;7.446;2023-08-08T09:07:06;17.30;99.90
36186;DHT22;22228;53.222;7.446;2023-08-08T09:09:31;17.40;1.40
36186;DHT22;22228;53.222;7.446;2023-08-08T09:11:53;17.50;99.90
36186;DHT22;22228;53.222;7.446;2023-08-08T09:14:17;17.60;99.90
36186;DHT22;22228;53.222;7.446;2023-08-08T09:16:45;17.50;99.90
36186;DHT22;22228;53.222;7.446;2023-08-08T09:19:06;17.60;99.90
36186;DHT22;22228;53.222;7.446;2023-08-08T09:21:28;17.90;99.90
36186;DHT22;22228;53.222;7.446;2023-08-08T09:23:49;18.00;1.00
36186;DHT22;22228;53.222;7.446;2023-08-08T09:26:44;18.10;1.00
36186;DHT22;22228;53.222;7.446;2023-08-08T09:29:05;18.30;98.50
36186;DHT22;22228;53.222;7.446;2023-08-08T09:31:26;18.10;1.00
36186;DHT22;22228;53.222;7.446;2023-08-08T09:33:47;17.70;99.90
36186;DHT22;22228;53.222;7.446;2023-08-08T09:36:14;17.10;99.90
36186;DHT22;22228;53.222;7.446;2023-08-08T09:38:37;16.80;1.00
36186;DHT22;22228;53.222;7.446;2023-08-08T09:40:58;16.60;1.00
36186;DHT22;22228;53.222;7.446;2023-08-08T09:43:19;16.50;1.00
36186;DHT22;22228;53.222;7.446;2023-08-08T09:45:39;16.60;1.00
36186;DHT22;22228;53.222;7.446;2023-08-08T09:48:06;16.90;1.00
36186;DHT22;22228;53.222;7.446;2023-08-08T09:50:26;17.20;99.90
36186;DHT22;22228;53.222;7.446;2023-08-08T09:52:48;17.50;1.00
36186;DHT22;22228;53.222;7.446;2023-08-08T09:55:11;17.70;1.00
36186;DHT22;22228;53.222;7.446;2023-08-08T09:57:32;17.70;99.90
36186;DHT22;22228;53.222;7.446;2023-08-08T09:59:53;17.40;16.80
36186;DHT22;22228;53.222;7.446;2023-08-08T10:02:14;16.70;99.90
36186;DHT22;22228;53.222;7.446;2023-08-08T10:04:35;16.20;99.90
36186;DHT22;22228;53.222;7.446;2023-08-08T10:06:57;15.80;1.00
36186;DHT22;22228;53.222;7.446;2023-08-08T10:09:20;15.60;98.00
36186;DHT22;22228;53.222;7.446;2023-08-08T10:12:08;15.50;99.90
36186;DHT22;22228;53.222;7.446;2023-08-08T10:14:30;15.40;99.90
36186;DHT22;22228;53.222;7.446;2023-08-08T10:16:51;15.30;99.90
36186;DHT22;22228;53.222;7.446;2023-08-08T10:19:13;15.50;99.90
36186;DHT22;22228;53.222;7.446;2023-08-08T10:21:34;15.80;99.90
36186;DHT22;22228;53.222;7.446;2023-08-08T10:24:03;16.10;1.00
36186;DHT22;22228;53.222;7.446;2023-08-08T10:26:27;16.50;39.80
36186;DHT22;22228;53.222;7.446;2023-08-08T10:28:57;16.90;99.90
36186;DHT22;22228;53.222;7.446;2023-08-08T10:31:20;17.30;99.90
36186;DHT22;22228;53.222;7.446;2023-08-08T10:33:43;17.60;99.90
36186;DHT22;22228;53.222;7.446;2023-08-08T10:36:05;17.70;1.00
36186;DHT22;22228;53.222;7.446;2023-08-08T10:38:37;17.60;1.00
36186;DHT22;22228;53.222;7.446;2023-08-08T10:41:02;17.20;1.00
36186;DHT22;22228;53.222;7.446;2023-08-08T10:43:26;16.60;1.00
36186;DHT22;22228;53.222;7.446;2023-08-08T10:45:51;16.40;1.00
36186;DHT22;22228;53.222;7.446;2023-08-08T10:48:11;16.30;55.90
36186;DHT22;22228;53.222;7.446;2023-08-08T10:50:32;16.30;1.00
36186;DHT22;22228;53.222;7.446;2023-08-08T10:53:01;16.20;77.30
36186;DHT22;22228;53.222;7.446;2023-08-08T10:55:24;16.10;1.00
36186;DHT22;22228;53.222;7.446;2023-08-08T10:57:53;16.00;1.00
36186;DHT22;22228;53.222;7.446;2023-08-08T11:00:18;15.80;1.00
36186;DHT22;22228;53.222;7.446;2023-08-08T11:02:41;15.70;1.00
36186;DHT22;22228;53.222;7.446;2023-08-08T11:05:03;16.00;1.00
36186;DHT22;22228;53.222;7.446;2023-08-08T11:07:27;16.60;99.90
36186;DHT22;22228;53.222;7.446;2023-08-08T11:09:48;17.20;1.00
36186;DHT22;22228;53.222;7.446;2023-08-08T11:12:13;17.50;1.00
36186;DHT22;22228;53.222;7.446;2023-08-08T11:14:34;17.60;1.00
36186;DHT22;22228;53.222;7.446;2023-08-08T11:16:55;17.60;1.00
36186;DHT22;22228;53.222;7.446;2023-08-08T11:19:18;17.50;1.00
36186;DHT22;22228;53.222;7.446;2023-08-08T11:21:40;17.60;1.00
36186;DHT22;22228;53.222;7.446;2023-08-08T11:24:02;18.10;99.90
36186;DHT22;22228;53.222;7.446;2023-08-08T11:26:23;18.50;99.90
36186;DHT22;22228;53.222;7.446;2023-08-08T11:28:49;19.00;1.00
36186;DHT22;22228;53.222;7.446;2023-08-08T11:31:09;18.80;99.90
36186;DHT22;22228;53.222;7.446;2023-08-08T11:33:31;18.40;1.00
36186;DHT22;22228;53.222;7.446;2023-08-08T11:35:54;18.10;99.90
36186;DHT22;22228;53.222;7.446;2023-08-08T11:38:15;18.00;99.90
36186;DHT22;22228;53.222;7.446;2023-08-08T11:40:35;17.70;1.00
36186;DHT22;22228;53.222;7.446;2023-08-08T11:42:56;17.30;1.00
36186;DHT22;22228;53.222;7.446;2023-08-08T11:45:17;17.30;54.30
36186;DHT22;22228;53.222;7.446;2023-08-08T11:47:38;17.30;1.00
36186;DHT22;22228;53.222;7.446;2023-08-08T11:49:59;17.40;1.00
36186;DHT22;22228;53.222;7.446;2023-08-08T11:52:22;17.50;99.90
36186;DHT22;22228;53.222;7.446;2023-08-08T11:54:43;18.10;1.00
36186;DHT22;22228;53.222;7.446;2023-08-08T11:57:04;18.20;1.00
36186;DHT22;22228;53.222;7.446;2023-08-08T11:59:25;18.10;1.00
36186;DHT22;22228;53.222;7.446;2023-08-08T12:01:46;18.30;1.00
36186;DHT22;22228;53.222;7.446;2023-08-08T12:04:08;18.30;1.00
36186;DHT22;22228;53.222;7.446;2023-08-08T12:06:29;18.10;1.00
36186;DHT22;22228;53.222;7.446;2023-08-08T12:08:51;17.90;9.30
36186;DHT22;22228;53.222;7.446;2023-08-08T12:11:15;18.00;1.00
36186;DHT22;22228;53.222;7.446;2023-08-08T12:13:37;19.00;1.00
36186;DHT22;22228;53.222;7.446;2023-08-08T12:15:58;19.80;99.90
36186;DHT22;22228;53.222;7.446;2023-08-08T12:18:19;19.20;99.90
36186;DHT22;22228;53.222;7.446;2023-08-08T12:20:39;18.80;99.90
36186;DHT22;22228;53.222;7.446;2023-08-08T12:23:00;18.50;99.90
36186;DHT22;22228;53.222;7.446;2023-08-08T12:25:22;18.50;99.90
36186;DHT22;22228;53.222;7.446;2023-08-08T12:27:43;18.80;99.90
36186;DHT22;22228;53.222;7.446;2023-08-08T12:30:06;18.80;99.90
36186;DHT22;22228;53.222;7.446;2023-08-08T12:32:27;18.90;99.90
36186;DHT22;22228;53.222;7.446;2023-08-08T12:34:51;19.70;99.90
36186;DHT22;22228;53.222;7.446;2023-08-08T12:37:11;19.80;22.10
36186;DHT22;22228;53.222;7.446;2023-08-08T12:39:32;19.30;99.90
36186;DHT22;22228;53.222;7.446;2023-08-08T12:41:54;19.00;99.90
36186;DHT22;22228;53.222;7.446;2023-08-08T12:44:15;18.70;99.90
36186;DHT22;22228;53.222;7.446;2023-08-08T12:46:36;18.40;99.90
36186;DHT22;22228;53.222;7.446;2023-08-08T12:48:56;18.20;1.00
36186;DHT22;22228;53.222;7.446;2023-08-08T12:51:17;17.80;99.90
36186;DHT22;22228;53.222;7.446;2023-08-08T12:53:38;17.60;1.00
36186;DHT22;22228;53.222;7.446;2023-08-08T12:55:58;18.00;1.00
36186;DHT22;22228;53.222;7.446;2023-08-08T12:58:20;18.40;1.00
36186;DHT22;22228;53.222;7.446;2023-08-08T13:00:42;18.30;70.30
36186;DHT22;22228;53.222;7.446;2023-08-08T13:03:03;18.10;99.90
36186;DHT22;22228;53.222;7.446;2023-08-08T13:05:24;18.80;1.00
36186;DHT22;22228;53.222;7.446;2023-08-08T13:07:44;19.00;1.00
36186;DHT22;22228;53.222;7.446;2023-08-08T13:10:06;18.60;1.00
36186;DHT22;22228;53.222;7.446;2023-08-08T13:12:27;18.20;1.00
36186;DHT22;22228;53.222;7.446;2023-08-08T13:14:49;18.00;1.00
36186;DHT22;22228;53.222;7.446;2023-08-08T13:17:09;18.00;1.00
36186;DHT22;22228;53.222;7.446;2023-08-08T13:19:30;18.10;1.00
36186;DHT22;22228;53.222;7.446;2023-08-08T13:21:50;18.20;1.00
36186;DHT22;22228;53.222;7.446;2023-08-08T13:24:11;19.30;1.00
36186;DHT22;22228;53.222;7.446;2023-08-08T13:26:33;19.90;99.90
36186;DHT22;22228;53.222;7.446;2023-08-08T13:28:53;20.40;99.90
36186;DHT22;22228;53.222;7.446;2023-08-08T13:31:16;19.50;99.90
36186;DHT22;22228;53.222;7.446;2023-08-08T13:33:37;18.70;99.90
36186;DHT22;22228;53.222;7.446;2023-08-08T13:35:58;18.20;1.00
36186;DHT22;22228;53.222;7.446;2023-08-08T13:38:18;17.80;1.00
36186;DHT22;22228;53.222;7.446;2023-08-08T13:40:40;18.20;1.00
36186;DHT22;22228;53.222;7.446;2023-08-08T13:43:00;18.00;1.00
36186;DHT22;22228;53.222;7.446;2023-08-08T13:45:21;18.20;99.90
36186;DHT22;22228;53.222;7.446;2023-08-08T13:47:43;18.90;99.90
36186;DHT22;22228;53.222;7.446;2023-08-08T13:50:12;19.10;99.90
36186;DHT22;22228;53.222;7.446;2023-08-08T13:52:33;19.50;1.00
36186;DHT22;22228;53.222;7.446;2023-08-08T13:54:54;19.10;1.00
36186;DHT22;22228;53.222;7.446;2023-08-08T13:57:16;18.50;1.00
36186;DHT22;22228;53.222;7.446;2023-08-08T13:59:39;18.40;1.00
36186;DHT22;22228;53.222;7.446;2023-08-08T14:02:00;19.30;1.00
36186;DHT22;22228;53.222;7.446;2023-08-08T14:04:21;19.60;1.00
36186;DHT22;22228;53.222;7.446;2023-08-08T14:06:43;20.10;1.00
36186;DHT22;22228;53.222;7.446;2023-08-08T14:09:04;19.80;1.00
36186;DHT22;22228;53.222;7.446;2023-08-08T14:11:25;19.40;1.00
36186;DHT22;22228;53.222;7.446;2023-08-08T14:13:46;19.70;1.00
36186;DHT22;22228;53.222;7.446;2023-08-08T14:16:07;19.50;1.00
36186;DHT22;22228;53.222;7.446;2023-08-08T14:21:46;18.60;1.00
36186;DHT22;22228;53.222;7.446;2023-08-08T14:24:09;18.20;1.00
36186;DHT22;22228;53.222;7.446;2023-08-08T14:26:30;18.20;99.90
36186;DHT22;22228;53.222;7.446;2023-08-08T14:28:51;19.00;56.30
36186;DHT22;22228;53.222;7.446;2023-08-08T14:31:12;20.00;1.00
36186;DHT22;22228;53.222;7.446;2023-08-08T14:33:32;19.90;1.00
36186;DHT22;22228;53.222;7.446;2023-08-08T14:35:53;19.60;1.00
36186;DHT22;22228;53.222;7.446;2023-08-08T14:38:15;19.80;1.00
36186;DHT22;22228;53.222;7.446;2023-08-08T14:40:36;20.00;1.00
36186;DHT22;22228;53.222;7.446;2023-08-08T14:42:56;19.60;1.00
36186;DHT22;22228;53.222;7.446;2023-08-08T14:45:18;19.10;1.00
36186;DHT22;22228;53.222;7.446;2023-08-08T14:47:40;19.30;1.00
36186;DHT22;22228;53.222;7.446;2023-08-08T14:50:01;19.40;1.00
36186;DHT22;22228;53.222;7.446;2023-08-08T14:52:23;19.50;1.00
36186;DHT22;22228;53.222;7.446;2023-08-08T14:54:46;19.70;1.00
36186;DHT22;22228;53.222;7.446;2023-08-08T14:57:07;19.50;1.00
36186;DHT22;22228;53.222;7.446;2023-08-08T14:59:29;19.50;1.00
36186;DHT22;22228;53.222;7.446;2023-08-08T15:01:49;18.80;1.00
36186;DHT22;22228;53.222;7.446;2023-08-08T15:04:11;18.70;2.00
36186;DHT22;22228;53.222;7.446;2023-08-08T15:06:32;19.20;1.00
36186;DHT22;22228;53.222;7.446;2023-08-08T15:08:52;19.50;1.00
36186;DHT22;22228;53.222;7.446;2023-08-08T15:11:14;19.60;1.00
36186;DHT22;22228;53.222;7.446;2023-08-08T15:13:35;19.20;1.00
36186;DHT22;22228;53.222;7.446;2023-08-08T15:15:56;19.90;1.00
36186;DHT22;22228;53.222;7.446;2023-08-08T15:18:16;20.10;1.00
36186;DHT22;22228;53.222;7.446;2023-08-08T15:20:37;20.30;1.00
36186;DHT22;22228;53.222;7.446;2023-08-08T15:22:57;19.90;99.90
36186;DHT22;22228;53.222;7.446;2023-08-08T15:25:19;19.70;99.90
36186;DHT22;22228;53.222;7.446;2023-08-08T15:27:40;18.90;99.90
36186;DHT22;22228;53.222;7.446;2023-08-08T15:30:01;18.50;99.90
36186;DHT22;22228;53.222;7.446;2023-08-08T15:32:21;18.20;99.90
36186;DHT22;22228;53.222;7.446;2023-08-08T15:34:42;17.90;1.00
36186;DHT22;22228;53.222;7.446;2023-08-08T15:37:03;18.00;1.00
36186;DHT22;22228;53.222;7.446;2023-08-08T15:39:24;18.10;1.00
36186;DHT22;22228;53.222;7.446;2023-08-08T15:41:44;18.00;1.00
36186;DHT22;22228;53.222;7.446;2023-08-08T15:44:07;18.10;1.00
36186;DHT22;22228;53.222;7.446;2023-08-08T15:46:28;17.90;1.00
36186;DHT22;22228;53.222;7.446;2023-08-08T15:48:48;18.00;1.00
36186;DHT22;22228;53.222;7.446;2023-08-08T15:51:09;18.00;1.00
36186;DHT22;22228;53.222;7.446;2023-08-08T15:53:30;17.90;1.00
36186;DHT22;22228;53.222;7.446;2023-08-08T15:55:53;18.00;1.00
36186;DHT22;22228;53.222;7.446;2023-08-08T15:58:14;18.10;1.00
36186;DHT22;22228;53.222;7.446;2023-08-08T16:00:36;18.20;1.00
36186;DHT22;22228;53.222;7.446;2023-08-08T16:02:56;18.20;1.00
36186;DHT22;22228;53.222;7.446;2023-08-08T16:05:18;18.20;1.00
36186;DHT22;22228;53.222;7.446;2023-08-08T16:07:39;18.10;1.00
36186;DHT22;22228;53.222;7.446;2023-08-08T16:10:00;18.00;1.00
36186;DHT22;22228;53.222;7.446;2023-08-08T16:12:21;17.60;99.90
36186;DHT22;22228;53.222;7.446;2023-08-08T16:14:42;17.60;1.00
36186;DHT22;22228;53.222;7.446;2023-08-08T16:17:04;17.60;1.00
36186;DHT22;22228;53.222;7.446;2023-08-08T16:19:25;17.60;1.00
36186;DHT22;22228;53.222;7.446;2023-08-08T16:21:48;17.60;1.00
36186;DHT22;22228;53.222;7.446;2023-08-08T16:24:10;17.70;1.00
36186;DHT22;22228;53.222;7.446;2023-08-08T16:26:31;17.70;1.00
36186;DHT22;22228;53.222;7.446;2023-08-08T16:28:51;17.80;1.00
36186;DHT22;22228;53.222;7.446;2023-08-08T16:31:12;17.80;1.00
36186;DHT22;22228;53.222;7.446;2023-08-08T16:33:34;17.70;1.00
36186;DHT22;22228;53.222;7.446;2023-08-08T16:35:54;17.60;1.00
36186;DHT22;22228;53.222;7.446;2023-08-08T16:38:16;17.60;1.00
36186;DHT22;22228;53.222;7.446;2023-08-08T16:40:38;17.50;1.00
36186;DHT22;22228;53.222;7.446;2023-08-08T16:42:59;17.30;1.00
36186;DHT22;22228;53.222;7.446;2023-08-08T16:45:19;17.10;1.00
36186;DHT22;22228;53.222;7.446;2023-08-08T16:47:40;17.00;1.00
36186;DHT22;22228;53.222;7.446;2023-08-08T16:50:02;17.10;1.00
36186;DHT22;22228;53.222;7.446;2023-08-08T16:52:26;17.20;99.90
36186;DHT22;22228;53.222;7.446;2023-08-08T16:54:49;17.30;99.90
36186;DHT22;22228;53.222;7.446;2023-08-08T16:57:10;17.30;23.80
36186;DHT22;22228;53.222;7.446;2023-08-08T16:59:31;17.30;1.00
36186;DHT22;22228;53.222;7.446;2023-08-08T17:01:52;17.30;16.20
36186;DHT22;22228;53.222;7.446;2023-08-08T17:04:12;17.20;1.90
36186;DHT22;22228;53.222;7.446;2023-08-08T17:06:35;17.30;58.30
36186;DHT22;22228;53.222;7.446;2023-08-08T17:08:55;17.30;35.70
36186;DHT22;22228;53.222;7.446;2023-08-08T17:11:16;17.30;1.00
36186;DHT22;22228;53.222;7.446;2023-08-08T17:13:37;17.20;1.00
36186;DHT22;22228;53.222;7.446;2023-08-08T17:15:58;17.10;1.00
36186;DHT22;22228;53.222;7.446;2023-08-08T17:18:19;17.10;12.00
36186;DHT22;22228;53.222;7.446;2023-08-08T17:20:39;17.10;99.90
36186;DHT22;22228;53.222;7.446;2023-08-08T17:23:01;17.20;6.40
36186;DHT22;22228;53.222;7.446;2023-08-08T17:25:22;17.20;17.00
36186;DHT22;22228;53.222;7.446;2023-08-08T17:27:44;17.20;59.50
36186;DHT22;22228;53.222;7.446;2023-08-08T17:30:08;17.10;39.50
36186;DHT22;22228;53.222;7.446;2023-08-08T17:32:29;17.10;99.90
36186;DHT22;22228;53.222;7.446;2023-08-08T17:34:50;17.00;99.90
36186;DHT22;22228;53.222;7.446;2023-08-08T17:37:10;17.10;78.00
36186;DHT22;22228;53.222;7.446;2023-08-08T17:39:32;17.10;99.90
36186;DHT22;22228;53.222;7.446;2023-08-08T17:41:53;17.00;99.90
36186;DHT22;22228;53.222;7.446;2023-08-08T17:44:13;17.20;92.10
36186;DHT22;22228;53.222;7.446;2023-08-08T17:46:34;17.60;1.00
36186;DHT22;22228;53.222;7.446;2023-08-08T17:48:55;18.00;1.00
36186;DHT22;22228;53.222;7.446;2023-08-08T17:51:15;18.20;1.00
36186;DHT22;22228;53.222;7.446;2023-08-08T17:53:36;18.50;1.00